createdAt,value
2018-05-26T10:25:05.225Z,4.60
2018-05-26T15:02:54.513Z,5.65
2018-05-26T16:12:37.254Z,5.75
2018-05-26T16:15:04.994Z,5.40
2018-05-26T16:17:33.803Z,5.32
2018-05-26T16:20:01.670Z,4.68
2018-05-26T16:22:29.439Z,5.85
2018-05-26T16:24:57.216Z,5.03
2018-05-26T16:27:25.773Z,4.82
2018-05-26T16:29:53.530Z,4.90
2018-05-26T16:32:21.401Z,5.53
2018-05-26T16:34:49.266Z,5.78
2018-05-26T16:37:17.127Z,5.78
2018-05-26T16:39:44.991Z,6.95
2018-05-26T16:42:12.719Z,5.95
2018-05-26T16:44:40.496Z,6.60
2018-05-26T16:47:08.226Z,6.32
2018-05-26T16:49:36.017Z,5.22
2018-05-26T16:52:03.914Z,5.43
2018-05-26T16:54:31.768Z,5.68
2018-05-26T16:56:59.528Z,5.60
2018-05-26T16:59:27.289Z,5.80
2018-05-26T17:01:55.089Z,5.97
2018-05-26T17:04:22.926Z,5.62
2018-05-26T17:06:50.706Z,5.62
2018-05-26T17:09:19.290Z,7.70
2018-05-26T17:11:47.944Z,5.80
2018-05-26T17:14:15.684Z,8.48
2018-05-26T17:16:43.451Z,5.45
2018-05-26T17:19:11.227Z,5.20
2018-05-26T17:21:39.091Z,4.78
2018-05-26T17:24:06.957Z,8.13
2018-05-26T17:26:34.733Z,5.50
2018-05-26T17:29:03.401Z,5.72
2018-05-26T17:31:31.270Z,4.30
2018-05-26T17:33:59.092Z,4.60
2018-05-26T17:36:26.861Z,5.47
2018-05-26T17:38:54.922Z,4.68
2018-05-26T17:41:23.544Z,4.82
2018-05-26T17:43:51.405Z,5.05
2018-05-26T17:46:19.167Z,5.22
2018-05-26T17:48:47.034Z,6.78
2018-05-26T17:51:14.997Z,4.85
2018-05-26T17:53:42.940Z,5.43
2018-05-26T17:56:10.732Z,5.18
2018-05-26T17:58:38.565Z,5.05
2018-05-26T18:01:06.388Z,7.57
2018-05-26T18:03:34.356Z,4.15
2018-05-26T18:06:02.166Z,5.72
2018-05-26T18:08:29.930Z,4.95
2018-05-26T18:10:59.550Z,5.32
2018-05-26T18:13:27.418Z,5.22
2018-05-26T18:15:55.280Z,4.35
2018-05-26T18:18:23.255Z,5.45
2018-05-26T18:20:54.591Z,4.70
2018-05-26T18:23:27.160Z,6.90
2018-05-26T18:25:56.412Z,5.22
2018-05-26T18:28:27.243Z,5.30
2018-05-26T18:30:59.159Z,4.95
2018-05-26T18:36:06.560Z,6.10
2018-05-26T18:38:35.240Z,5.65
2018-05-26T18:41:03.719Z,6.15
2018-05-26T18:43:31.685Z,6.90
2018-05-26T18:45:59.553Z,7.28
2018-05-26T18:48:27.413Z,6.45
2018-05-26T18:50:55.177Z,7.10
2018-05-26T18:53:23.039Z,7.75
2018-05-26T18:55:50.905Z,9.05
2018-05-26T18:58:18.847Z,6.60
2018-05-26T19:00:46.635Z,6.30
2018-05-26T19:03:14.496Z,7.45
2018-05-26T19:05:43.179Z,7.50
2018-05-26T19:08:11.049Z,9.02
2018-05-26T19:10:38.976Z,7.22
2018-05-26T19:13:06.743Z,8.98
2018-05-26T19:15:34.600Z,10.50
2018-05-26T19:18:02.535Z,8.93
2018-05-26T19:20:30.466Z,12.85
2018-05-26T19:22:58.433Z,8.13
2018-05-26T19:25:26.913Z,8.05
2018-05-26T19:27:54.672Z,7.95
2018-05-26T19:30:23.767Z,7.25
2018-05-26T19:32:52.256Z,9.25
2018-05-26T19:35:21.132Z,8.50
2018-05-26T19:37:50.137Z,8.00
2018-05-26T19:40:18.706Z,9.05
2018-05-26T19:42:46.579Z,8.70
2018-05-26T19:45:14.432Z,9.63
2018-05-26T19:47:42.298Z,8.80
2018-05-26T19:50:11.578Z,9.40
2018-05-26T19:52:39.460Z,9.38
2018-05-26T19:55:07.323Z,10.57
2018-05-26T19:57:36.253Z,8.85
2018-05-26T20:00:04.382Z,10.23
2018-05-26T20:02:32.250Z,13.25
2018-05-26T20:05:00.112Z,13.55
2018-05-26T20:07:27.976Z,12.30
2018-05-26T20:09:55.842Z,13.88
2018-05-26T20:12:24.014Z,11.12
2018-05-26T20:14:52.385Z,11.10
2018-05-26T20:17:20.351Z,10.90
2018-05-26T20:19:49.281Z,12.23
2018-05-26T20:22:17.118Z,13.15
2018-05-26T20:24:44.889Z,12.40
2018-05-26T20:27:12.677Z,13.55
2018-05-26T20:29:40.428Z,14.13
2018-05-26T20:32:08.198Z,13.62
2018-05-26T20:34:36.531Z,12.93
2018-05-26T20:37:05.277Z,13.55
2018-05-26T20:39:33.148Z,18.83
2018-05-26T20:42:00.911Z,18.75
2018-05-26T20:44:28.906Z,12.80
2018-05-26T20:46:56.687Z,12.27
2018-05-26T20:49:26.485Z,12.00
2018-05-26T20:51:55.165Z,11.70
2018-05-26T20:54:23.026Z,15.23
2018-05-26T20:56:55.776Z,11.55
2018-05-26T20:59:23.568Z,11.75
2018-05-26T21:01:51.442Z,11.98
2018-05-26T21:04:20.509Z,11.45
2018-05-26T21:06:52.917Z,10.90
2018-05-26T21:09:21.579Z,12.48
2018-05-26T21:11:49.410Z,13.00
2018-05-26T21:14:17.311Z,12.57
2018-05-26T21:16:46.760Z,14.30
2018-05-26T21:19:17.337Z,12.07
2018-05-26T21:21:45.210Z,11.45
2018-05-26T21:24:13.068Z,11.85
2018-05-26T21:26:41.029Z,11.32
2018-05-26T21:29:09.517Z,13.50
2018-05-26T21:31:38.197Z,11.93
2018-05-26T21:34:06.137Z,12.20
2018-05-26T21:36:34.001Z,12.20
2018-05-26T21:39:01.817Z,12.73
2018-05-26T21:41:29.612Z,13.10
2018-05-26T21:43:57.344Z,14.18
2018-05-26T21:46:25.150Z,11.50
2018-05-26T21:48:52.903Z,13.43
2018-05-26T21:51:20.827Z,14.30
2018-05-26T21:53:48.666Z,12.20
2018-05-26T21:56:16.545Z,13.32
2018-05-26T21:58:45.208Z,13.85
2018-05-26T22:01:13.097Z,14.27
2018-05-26T22:03:41.727Z,14.55
2018-05-26T22:06:09.660Z,14.38
2018-05-26T22:08:38.304Z,13.32
2018-05-26T22:11:06.374Z,14.15
2018-05-26T22:13:34.820Z,14.05
2018-05-26T22:16:02.614Z,13.32
2018-05-26T22:18:30.477Z,14.00
2018-05-26T22:20:58.388Z,14.18
2018-05-26T22:23:26.205Z,14.90
2018-05-26T22:25:54.173Z,14.50
2018-05-26T22:28:22.037Z,14.10
2018-05-26T22:30:49.901Z,14.77
2018-05-26T22:33:17.768Z,13.93
2018-05-26T22:35:45.628Z,14.43
2018-05-26T22:38:13.497Z,14.57
2018-05-26T22:40:41.363Z,13.13
2018-05-26T22:43:09.221Z,18.15
2018-05-26T22:45:37.088Z,15.27
2018-05-26T22:48:04.950Z,14.65
2018-05-26T22:50:32.697Z,14.90
2018-05-26T22:53:01.076Z,14.73
2018-05-26T22:55:28.843Z,14.93
2018-05-26T22:57:56.612Z,13.65
2018-05-26T23:00:26.317Z,15.13
2018-05-26T23:02:54.120Z,14.60
2018-05-26T23:05:21.945Z,15.35
2018-05-26T23:07:49.808Z,14.07
2018-05-26T23:10:17.674Z,14.48
2018-05-26T23:12:45.501Z,17.23
2018-05-26T23:15:13.302Z,15.80
2018-05-26T23:17:41.163Z,16.58
2018-05-26T23:20:09.030Z,14.35
2018-05-26T23:22:36.892Z,15.25
2018-05-26T23:25:04.757Z,16.30
2018-05-26T23:27:32.620Z,14.25
2018-05-26T23:30:01.305Z,14.43
2018-05-26T23:32:29.168Z,17.77
2018-05-26T23:34:57.038Z,15.77
2018-05-26T23:37:24.905Z,17.92
2018-05-26T23:39:52.765Z,15.70
2018-05-26T23:42:22.474Z,14.25
2018-05-26T23:44:50.433Z,16.62
2018-05-26T23:47:18.269Z,17.10
2018-05-26T23:49:46.164Z,17.08
2018-05-26T23:52:14.034Z,15.70
2018-05-26T23:54:41.895Z,18.00
2018-05-26T23:57:09.757Z,17.33
2018-05-26T23:59:37.622Z,19.20
